Nashville International Airport Nashville US
ICAO: KBNA
IATA: BNA
Category: Large
Scheduled Services: Yes

Elevation: 599 ft
TransAlt. 18000 ft.

Airport Communications:
APP:120.6
ATIS:135.1
CLNC DEL:126.05
DEP:118.4
GND:121.9
ANG MAINT:138.1
ANG OPS:32.29
RDO:122.2
TWR:118.6
UNICOM:122.95

KBNA Zoom In..

Runways:

(A) RW 02C length 8001 ft width 150 ft
ILS 110.75 / hdg 21

(B) RW 02L length 7703 ft width 150 ft
ILS 109.90 / hdg 21

(C) RW 02R length 8000 ft width 150 ft
ILS 111.75 / hdg 21

(D) RW 13 length 11030 ft width 150 ft
---- / hdg 136

(E) RW 20C length 8001 ft width 150 ft
---- / hdg 201

(F) RW 20L length 8000 ft width 150 ft
ILS 109.35 / hdg 201

(G) RW 20R length 7703 ft width 150 ft
ILS 111.30 / hdg 201

(H) RW 31 length 11030 ft width 150 ft
ILS 111.95 / hdg 316

Location; KBNA
Day. 22 / Time. 23.53 Zulu
* Altimeter: 29.70
* Temperature: 17° c. 62.6°f.
* Wind from: 200° Speed 14 kn with Gusts up to 22 kn.
Dewpoint: 12° c.
Visibility: 10 Statute Miles.
Clouds: Broken 2600 ft.
Clouds: Broken 3300 ft.
Clouds: Broken 5500 ft.

KBNA 222353Z 20014G22KT 10SM BKN026 BKN033 BKN055 17/12 A2970 RMK AO2 PK WND 18027/2321 SLP053 T01670122 10172 20150 55005


Wind From 200°
Speed 14 kn.

YouTube Music Video
 
jpsmedia.com for Web Design  worldairports.se 2018   terms of use